Time;durP1;ratioP1;P1;durP2;ratioP2;P2;SDS_P1;SDS_P2;PMS_P1;PMS_P2;Temp;Humidity;BMP_temperature;BMP_pressure;BME280_temperature;BME280_humidity;BME280_pressure;Samples;Min_cycle;Max_cycle;Signal;HPM_P1;HPM_P2
2022/01/01 09:58:38;;;;;;;4.40;2.25;;;19.60;80.80;;;;;;5111038;27;20369;-45
2022/01/01 10:01:06;;;;;;;4.07;2.53;;;19.70;81.00;;;;;;5018452;28;20049;-42
2022/01/01 10:03:38;;;;;;;5.85;2.47;;;19.80;80.90;;;;;;5059923;28;20049;-43
2022/01/01 10:06:09;;;;;;;4.88;2.75;;;20.00;80.20;;;;;;5072372;28;20053;-40
2022/01/01 10:08:37;;;;;;;3.20;2.15;;;20.30;79.50;;;;;;5091090;28;20094;-41
2022/01/01 10:11:04;;;;;;;3.33;2.20;;;20.50;78.90;;;;;;5084463;28;20049;-43
2022/01/01 10:13:32;;;;;;;5.75;2.00;;;20.70;78.20;;;;;;5048623;28;20111;-47
2022/01/01 10:16:00;;;;;;;4.93;2.30;;;20.90;77.60;;;;;;5051502;28;20107;-39
2022/01/01 10:18:29;;;;;;;4.63;2.50;;;21.00;76.70;;;;;;5050739;28;20052;-44
2022/01/01 10:20:57;;;;;;;6.78;2.70;;;21.20;75.80;;;;;;5049995;28;20072;-41
2022/01/01 10:23:28;;;;;;;7.80;3.73;;;21.30;75.30;;;;;;5034561;28;20463;-41
2022/01/01 10:28:55;;;;;;;9.20;3.72;;;21.50;73.40;;;;;;5052623;28;20132;-41
2022/01/01 10:31:22;;;;;;;12.02;4.55;;;21.50;74.30;;;;;;5050216;28;20106;-40
2022/01/01 10:33:49;;;;;;;12.98;4.22;;;21.60;73.80;;;;;;5066591;28;20151;-40
2022/01/01 10:36:15;;;;;;;10.07;4.40;;;21.70;73.80;;;;;;5051138;28;20159;-43
2022/01/01 10:38:44;;;;;;;12.18;4.57;;;21.70;73.30;;;;;;5050582;28;20053;-40
2022/01/01 10:41:13;;;;;;;13.55;5.32;;;21.70;73.00;;;;;;5067157;28;20140;-44
2022/01/01 10:43:42;;;;;;;11.25;4.88;;;21.80;73.00;;;;;;5068295;28;20149;-41
2022/01/01 10:46:12;;;;;;;9.38;4.10;;;21.80;72.90;;;;;;5066436;28;20494;-40
2022/01/01 10:48:52;;;;;;;11.02;4.68;;;21.80;72.60;;;;;;5067435;28;20052;-42
2022/01/01 10:51:19;;;;;;;12.75;5.13;;;21.90;72.50;;;;;;5050556;28;20053;-41
2022/01/01 10:53:46;;;;;;;9.75;4.20;;;21.90;72.30;;;;;;5064855;28;20056;-42
2022/01/01 10:56:17;;;;;;;15.20;5.57;;;22.00;72.10;;;;;;5067602;28;20099;-40
2022/01/01 10:58:44;;;;;;;11.23;4.57;;;22.00;71.60;;;;;;5066906;28;20040;-42
2022/01/01 11:01:11;;;;;;;9.65;4.65;;;22.00;71.80;;;;;;5066875;28;20049;-40
2022/01/01 11:03:40;;;;;;;13.68;4.88;;;21.90;71.70;;;;;;5050191;28;20048;-39
2022/01/01 11:06:08;;;;;;;12.43;5.43;;;22.00;71.60;;;;;;5067721;28;20052;-42
2022/01/01 11:08:35;;;;;;;11.50;4.95;;;21.90;71.80;;;;;;5061795;28;20073;-40
2022/01/01 11:11:03;;;;;;;16.65;6.35;;;21.90;71.60;;;;;;5053499;28;20460;-40
2022/01/01 11:13:31;;;;;;;14.57;5.57;;;21.90;71.80;;;;;;5052943;28;20130;-40
2022/01/01 11:15:58;;;;;;;9.55;5.13;;;21.90;71.90;;;;;;5053213;28;20112;-41
2022/01/01 11:18:25;;;;;;;12.55;5.05;;;22.00;72.00;;;;;;5052680;28;20056;-39
2022/01/01 11:20:52;;;;;;;10.10;4.45;;;22.00;72.00;;;;;;5052386;28;20072;-45
2022/01/01 11:23:19;;;;;;;11.40;4.40;;;22.00;72.00;;;;;;5052862;28;20049;-42
2022/01/01 11:25:46;;;;;;;9.85;4.03;;;22.00;72.20;;;;;;5053407;28;20049;-42
2022/01/01 11:28:15;;;;;;;10.98;4.22;;;22.00;72.10;;;;;;5052736;28;20093;-45
2022/01/01 11:31:06;;;;;;;10.15;4.25;;;22.00;72.10;;;;;;5054124;28;20099;-43
2022/01/01 11:33:40;;;;;;;9.95;5.07;;;22.00;71.10;;;;;;5052140;28;20089;-41
2022/01/01 11:36:07;;;;;;;9.27;3.97;;;22.00;71.30;;;;;;5053110;28;20573;-43
2022/01/01 11:38:35;;;;;;;8.07;4.35;;;22.00;71.80;;;;;;5052793;28;20081;-40
2022/01/01 11:41:08;;;;;;;10.27;4.68;;;22.00;71.70;;;;;;5034923;28;20119;-42
2022/01/01 11:43:53;;;;;;;8.73;4.47;;;22.00;71.80;;;;;;5036726;28;20076;-41
2022/01/01 11:46:23;;;;;;;8.90;4.18;;;22.00;71.70;;;;;;5052868;28;20049;-43
2022/01/01 11:48:56;;;;;;;10.70;4.32;;;22.00;71.70;;;;;;5052814;28;20140;-42
2022/01/01 11:51:50;;;;;;;7.32;4.20;;;22.00;71.60;;;;;;5053646;28;20339;-41
2022/01/01 11:54:20;;;;;;;8.63;4.15;;;22.00;70.20;;;;;;5031982;28;20127;-41
2022/01/01 11:56:50;;;;;;;10.85;4.63;;;22.00;71.30;;;;;;5035621;28;20076;-40
2022/01/01 11:59:41;;;;;;;7.03;4.25;;;22.00;70.80;;;;;;5035767;28;20045;-41
2022/01/01 12:02:30;;;;;;;10.98;4.10;;;22.10;69.90;;;;;;5031077;28;20459;-41
2022/01/01 12:05:09;;;;;;;6.40;3.70;;;22.10;70.20;;;;;;5036074;28;20057;-43
2022/01/01 12:07:48;;;;;;;9.45;4.60;;;22.10;69.50;;;;;;5048175;28;20537;-44
2022/01/01 12:10:36;;;;;;;8.75;3.50;;;22.10;69.40;;;;;;5055489;28;20106;-44
2022/01/01 12:13:06;;;;;;;8.70;3.58;;;22.00;69.10;;;;;;5054652;28;20044;-41
2022/01/01 12:15:43;;;;;;;8.13;4.03;;;22.00;69.70;;;;;;5054541;28;20392;-42
2022/01/01 12:18:23;;;;;;;9.60;3.42;;;22.00;69.30;;;;;;5054721;28;20045;-41
2022/01/01 12:20:57;;;;;;;7.78;3.63;;;22.00;69.00;;;;;;5036430;28;20045;-39
2022/01/01 12:23:26;;;;;;;5.95;3.58;;;22.00;69.40;;;;;;5055708;28;20110;-40
2022/01/01 12:25:53;;;;;;;;;;;22.00;69.30;;;;;;5055310;28;20045;-45
2022/01/01 12:28:34;;;;;;;7.03;3.65;;;21.90;68.80;;;;;;5036187;28;19974;-42
2022/01/01 12:31:10;;;;;;;5.47;3.75;;;22.00;68.90;;;;;;5054496;28;20107;-44
2022/01/01 12:33:54;;;;;;;9.63;4.75;;;22.00;68.90;;;;;;5053044;28;20049;-40
2022/01/01 12:36:26;;;;;;;8.90;4.50;;;22.10;69.00;;;;;;5054784;28;20059;-40
2022/01/01 12:38:56;;;;;;;6.90;3.22;;;22.20;68.50;;;;;;5054697;28;20164;-40
2022/01/01 12:41:26;;;;;;;5.93;3.38;;;22.20;68.90;;;;;;5052636;28;20073;-40
2022/01/01 12:43:57;;;;;;;6.57;3.35;;;22.20;68.40;;;;;;5036314;28;20080;-41
2022/01/01 12:46:26;;;;;;;6.72;3.30;;;22.20;68.50;;;;;;5054435;28;20053;-44
2022/01/01 12:48:54;;;;;;;8.00;3.33;;;22.20;68.10;;;;;;5054294;28;20049;-43
2022/01/01 12:51:23;;;;;;;7.15;3.22;;;22.20;68.40;;;;;;5054578;28;20092;-42
2022/01/01 12:53:56;;;;;;;7.38;3.55;;;22.30;68.10;;;;;;5052537;28;20063;-42
2022/01/01 12:56:22;;;;;;;6.80;3.10;;;22.30;67.70;;;;;;5037095;28;20048;-40
2022/01/01 12:58:51;;;;;;;7.05;3.58;;;22.30;68.30;;;;;;5054412;28;20084;-44
2022/01/01 13:01:19;;;;;;;7.78;3.42;;;22.20;68.20;;;;;;5053980;28;20150;-41
2022/01/01 13:03:50;;;;;;;6.55;3.42;;;22.20;68.00;;;;;;5053880;28;20475;-46
2022/01/01 13:06:31;;;;;;;7.45;3.20;;;22.20;68.60;;;;;;5049557;28;20132;-44
2022/01/01 13:08:59;;;;;;;6.78;3.03;;;22.30;68.30;;;;;;5054346;28;20088;-42
2022/01/01 13:11:26;;;;;;;5.63;3.15;;;22.30;68.60;;;;;;5054791;28;20079;-42
2022/01/01 13:13:53;;;;;;;6.50;3.58;;;22.40;68.50;;;;;;5052694;28;20107;-41
2022/01/01 13:16:19;;;;;;;8.10;3.45;;;22.60;68.50;;;;;;5054084;28;20099;-40
2022/01/01 13:18:46;;;;;;;8.52;2.72;;;22.70;67.70;;;;;;5054279;28;20040;-43
2022/01/01 13:21:13;;;;;;;6.65;3.40;;;22.70;67.70;;;;;;5052304;28;20045;-44
2022/01/01 13:23:40;;;;;;;6.35;3.83;;;22.80;67.40;;;;;;5054611;28;20068;-43
2022/01/01 13:26:07;;;;;;;6.07;2.85;;;22.80;67.80;;;;;;5054125;28;20488;-39
2022/01/01 13:28:35;;;;;;;5.20;3.58;;;22.70;66.90;;;;;;5052911;28;20085;-40
2022/01/01 13:31:04;;;;;;;5.07;2.90;;;22.60;66.80;;;;;;5054215;28;20062;-40
2022/01/01 13:33:31;;;;;;;;;;;22.60;67.20;;;;;;5052390;28;20059;-39
2022/01/01 13:36:00;;;;;;;5.95;3.40;;;22.60;66.90;;;;;;5024069;28;19956;-42
2022/01/01 13:38:28;;;;;;;7.90;2.65;;;22.50;67.60;;;;;;5033891;28;20104;-44
2022/01/01 13:40:57;;;;;;;6.65;2.95;;;22.60;67.70;;;;;;5032807;28;20049;-42
2022/01/01 13:43:28;;;;;;;;;;;22.60;67.60;;;;;;5017020;28;20057;-45
2022/01/01 13:46:12;;;;;;;3.90;2.50;;;22.70;67.30;;;;;;5034498;28;20314;-40
2022/01/01 13:48:43;;;;;;;6.28;2.78;;;22.70;67.30;;;;;;5016752;28;20144;-43
2022/01/01 13:51:11;;;;;;;6.05;2.58;;;22.70;67.60;;;;;;5042208;28;20059;-42
2022/01/01 13:53:42;;;;;;;7.13;2.90;;;22.70;67.40;;;;;;5049601;28;20080;-41
2022/01/01 13:56:16;;;;;;;5.00;2.60;;;22.70;67.30;;;;;;5054308;28;20056;-40
2022/01/01 13:58:50;;;;;;;6.53;3.80;;;22.80;67.10;;;;;;5053651;28;20084;-42
2022/01/01 14:01:18;;;;;;;5.47;2.80;;;22.80;67.00;;;;;;5049724;28;20087;-40
2022/01/01 14:03:45;;;;;;;6.70;3.45;;;22.70;67.40;;;;;;5016610;28;20429;-39
2022/01/01 14:06:12;;;;;;;6.43;3.10;;;22.70;67.20;;;;;;5034850;28;20080;-55
2022/01/01 14:08:56;;;;;;;8.65;2.65;;;22.70;67.60;;;;;;5052646;28;20179;-45
2022/01/01 14:11:37;;;;;;;9.55;3.60;;;22.80;67.10;;;;;;5053470;28;20049;-44
2022/01/01 14:14:10;;;;;;;6.35;2.95;;;22.80;67.20;;;;;;5051537;28;20071;-49
2022/01/01 14:16:48;;;;;;;6.05;2.65;;;22.70;67.40;;;;;;5052624;28;20369;-45
2022/01/01 14:19:16;;;;;;;6.20;2.83;;;22.70;67.40;;;;;;5052951;28;20051;-48
2022/01/01 14:21:44;;;;;;;4.53;2.60;;;22.60;67.70;;;;;;5052809;28;20045;-46
2022/01/01 14:24:15;;;;;;;9.27;3.38;;;22.50;67.90;;;;;;5053426;28;20076;-46
2022/01/01 14:26:47;;;;;;;6.38;3.00;;;22.50;68.00;;;;;;5052674;28;20084;-46
2022/01/01 14:29:15;;;;;;;7.50;2.88;;;22.40;68.00;;;;;;5052954;28;20127;-47
2022/01/01 14:31:42;;;;;;;7.97;3.10;;;22.40;68.10;;;;;;5053647;28;20072;-46
2022/01/01 14:34:18;;;;;;;6.13;2.97;;;22.40;68.20;;;;;;5052597;28;20079;-47
2022/01/01 14:36:47;;;;;;;6.10;2.72;;;22.30;68.20;;;;;;5054082;28;20379;-45
2022/01/01 14:39:14;;;;;;;3.63;2.38;;;22.30;68.20;;;;;;5052786;28;20092;-45
2022/01/01 14:41:41;;;;;;;6.15;2.97;;;22.30;68.30;;;;;;5051384;28;20494;-44
2022/01/01 14:44:08;;;;;;;5.80;3.25;;;22.20;68.30;;;;;;5054089;28;20118;-43
2022/01/01 14:46:40;;;;;;;8.93;3.38;;;22.20;68.50;;;;;;5056034;28;20068;-45
2022/01/01 14:49:21;;;;;;;5.57;2.80;;;22.20;68.50;;;;;;5039922;28;20059;-48
2022/01/01 14:51:57;;;;;;;7.30;3.20;;;22.20;68.40;;;;;;5039200;28;20439;-44
2022/01/01 14:54:34;;;;;;;5.40;2.97;;;22.10;68.60;;;;;;5055197;28;20056;-45
2022/01/01 14:57:04;;;;;;;8.63;3.00;;;22.10;68.60;;;;;;5056834;28;20071;-47
2022/01/01 14:59:35;;;;;;;4.53;2.60;;;22.10;68.90;;;;;;5056330;28;20045;-49
2022/01/01 15:02:03;;;;;;;7.63;3.10;;;22.00;68.80;;;;;;5056630;28;20456;-49
2022/01/01 15:04:30;;;;;;;5.75;2.40;;;22.00;68.90;;;;;;5056987;28;20055;-45
2022/01/01 15:06:58;;;;;;;4.00;2.30;;;22.00;68.90;;;;;;5037750;28;20472;-46
2022/01/01 15:09:32;;;;;;;5.72;2.50;;;22.00;69.60;;;;;;5056714;28;20088;-47
2022/01/01 15:11:59;;;;;;;6.22;3.00;;;22.00;69.00;;;;;;5056979;28;20064;-46
2022/01/01 15:14:30;;;;;;;5.03;2.30;;;22.00;69.00;;;;;;5054705;28;20049;-48
2022/01/01 15:16:58;;;;;;;6.75;2.30;;;21.90;69.00;;;;;;5039044;28;20053;-46
2022/01/01 15:19:25;;;;;;;6.85;2.83;;;21.90;68.90;;;;;;5039215;28;20080;-46
2022/01/01 15:22:01;;;;;;;8.40;3.42;;;21.90;69.00;;;;;;5038664;28;20126;-43
2022/01/01 15:24:36;;;;;;;7.03;3.13;;;21.90;68.90;;;;;;5056420;28;20099;-47
2022/01/01 15:27:08;;;;;;;7.88;3.05;;;21.90;69.00;;;;;;5055435;28;20114;-48
2022/01/01 15:29:56;;;;;;;4.63;2.45;;;21.90;69.10;;;;;;5056558;28;20107;-46
2022/01/01 15:35:32;;;;;;;6.35;2.38;;;21.80;69.20;;;;;;4984580;28;20107;-47
2022/01/01 15:38:05;;;;;;;8.45;2.90;;;21.90;69.30;;;;;;5035246;28;20380;-48
2022/01/01 15:40:42;;;;;;;6.20;2.70;;;22.00;69.40;;;;;;5034233;28;20410;-43
2022/01/01 15:43:10;;;;;;;4.05;2.20;;;22.00;69.00;;;;;;5035865;28;20087;-51
2022/01/01 15:45:38;;;;;;;7.05;3.35;;;22.10;69.00;;;;;;5035344;28;20041;-50
2022/01/01 15:48:06;;;;;;;7.60;2.78;;;22.20;68.50;;;;;;5033092;28;20088;-44
2022/01/01 15:50:32;;;;;;;4.93;2.47;;;22.30;68.50;;;;;;5026009;28;20148;-50
2022/01/01 15:52:59;;;;;;;6.38;3.00;;;22.30;68.40;;;;;;5002313;28;20081;-55
2022/01/01 15:55:26;;;;;;;6.57;3.17;;;22.40;68.70;;;;;;5013700;28;20136;-52
2022/01/01 15:57:56;;;;;;;5.35;2.10;;;22.60;68.60;;;;;;5025996;28;20081;-46
2022/01/01 16:00:24;;;;;;;7.72;2.78;;;22.80;69.20;;;;;;5050420;28;20088;-52
2022/01/01 16:03:11;;;;;;;7.25;3.00;;;22.80;67.30;;;;;;5050696;28;20100;-52
2022/01/01 16:05:54;;;;;;;8.93;3.47;;;22.80;66.60;;;;;;5035525;28;20052;-52
2022/01/01 16:58:16;;;;;;;7.57;3.10;;;20.90;74.30;;;;;;5117461;27;20369;-46
2022/01/01 17:00:49;;;;;;;6.03;3.08;;;20.90;73.40;;;;;;5074888;28;20079;-44
2022/01/01 17:03:46;;;;;;;4.82;2.83;;;21.00;73.50;;;;;;5103064;28;20101;-48
2022/01/01 17:06:14;;;;;;;5.45;2.95;;;21.40;73.30;;;;;;5090510;28;20055;-45
2022/01/01 17:08:43;;;;;;;5.03;2.65;;;21.60;72.40;;;;;;5090975;28;20125;-43
2022/01/01 17:11:11;;;;;;;4.67;3.00;;;21.70;71.80;;;;;;5084528;28;20093;-45
2022/01/01 17:13:39;;;;;;;6.77;2.57;;;21.90;71.40;;;;;;5108980;28;20044;-46
2022/01/01 17:16:25;;;;;;;5.18;2.92;;;22.00;71.00;;;;;;5108566;28;20456;-47
2022/01/01 17:19:07;;;;;;;5.55;2.53;;;22.20;70.50;;;;;;5105655;28;20151;-47
2022/01/01 17:21:54;;;;;;;4.85;2.42;;;22.30;70.20;;;;;;5109390;28;20043;-46
2022/01/01 17:24:23;;;;;;;5.18;2.60;;;22.40;69.80;;;;;;5111491;28;20071;-54
2022/01/01 17:26:50;;;;;;;4.82;2.42;;;22.50;69.90;;;;;;5076770;28;20752;-47
2022/01/01 17:29:18;;;;;;;6.35;2.80;;;22.60;69.40;;;;;;5111785;28;20051;-49
2022/01/01 17:31:46;;;;;;;5.28;2.72;;;22.60;69.10;;;;;;5109412;28;20083;-46
2022/01/01 17:42:17;;;;;;;4.20;3.00;;;22.70;68.20;;;;;;5108715;28;20075;-47
2022/01/01 17:44:45;;;;;;;6.00;2.45;;;22.70;68.40;;;;;;5108003;28;20064;-48
2022/01/01 17:47:12;;;;;;;4.47;2.72;;;22.70;68.20;;;;;;5107034;28;20425;-49
2022/01/01 17:49:43;;;;;;;5.07;2.03;;;22.70;68.20;;;;;;5108632;28;20075;-47
2022/01/01 17:52:12;;;;;;;4.70;2.20;;;22.80;68.50;;;;;;5107853;28;20086;-47
2022/01/01 17:54:39;;;;;;;;;;;22.80;67.80;;;;;;5107656;28;20120;-48
2022/01/01 17:57:07;;;;;;;5.90;3.00;;;22.80;67.20;;;;;;5096672;28;19986;-48
2022/01/01 17:59:35;;;;;;;4.78;2.38;;;22.80;67.80;;;;;;5035939;28;20471;-49
2022/01/01 18:02:05;;;;;;;4.18;2.33;;;22.80;67.80;;;;;;5087469;28;20386;-49
2022/01/01 18:04:33;;;;;;;6.35;2.92;;;22.80;67.60;;;;;;5086990;28;20044;-46
2022/01/01 18:07:02;;;;;;;10.05;2.40;;;22.80;67.50;;;;;;5069240;28;20500;-51
2022/01/01 18:09:36;;;;;;;5.35;2.53;;;22.80;67.50;;;;;;5074390;28;20110;-47
2022/01/01 18:12:03;;;;;;;4.03;2.50;;;22.80;67.30;;;;;;5056229;28;20479;-48
2022/01/01 18:14:36;;;;;;;5.22;2.53;;;22.70;67.30;;;;;;5073328;28;20136;-47
2022/01/01 18:17:03;;;;;;;6.25;2.75;;;22.70;67.30;;;;;;5057047;28;20084;-46
2022/01/01 18:19:31;;;;;;;4.80;2.53;;;22.70;67.40;;;;;;5075874;28;20078;-48
2022/01/01 18:21:59;;;;;;;5.55;2.72;;;22.70;67.60;;;;;;5075986;28;20049;-46
2022/01/01 18:24:46;;;;;;;5.93;2.90;;;22.60;68.20;;;;;;5075644;28;20076;-47
2022/01/01 18:27:16;;;;;;;6.30;2.60;;;22.60;67.20;;;;;;5075392;28;20123;-46
2022/01/01 18:29:44;;;;;;;7.70;2.85;;;22.50;67.60;;;;;;5058971;28;20120;-46
2022/01/01 18:32:15;;;;;;;6.78;3.05;;;22.50;67.60;;;;;;5075651;28;20050;-48
2022/01/01 18:34:47;;;;;;;8.00;3.60;;;22.50;67.70;;;;;;5074963;28;20090;-48
2022/01/01 18:37:14;;;;;;;5.53;2.53;;;22.50;67.70;;;;;;5058438;28;20072;-49
2022/01/01 18:39:42;;;;;;;4.95;2.45;;;22.50;67.80;;;;;;5074831;28;20040;-49
2022/01/01 18:42:09;;;;;;;5.15;3.13;;;22.40;67.80;;;;;;5075580;28;20080;-47
2022/01/01 18:44:38;;;;;;;5.28;2.70;;;22.40;67.90;;;;;;5076185;28;20094;-46
2022/01/01 18:47:05;;;;;;;6.53;2.83;;;22.40;67.90;;;;;;5057336;28;20048;-47
2022/01/01 18:49:32;;;;;;;5.25;2.72;;;22.40;68.00;;;;;;5075044;28;20095;-48
2022/01/01 18:52:01;;;;;;;5.13;3.10;;;22.30;68.00;;;;;;5074917;28;20059;-46
2022/01/01 18:54:29;;;;;;;6.28;3.03;;;22.30;68.10;;;;;;5073755;28;20041;-50
2022/01/01 18:56:59;;;;;;;5.40;2.45;;;22.30;67.90;;;;;;5074702;28;20091;-47
2022/01/01 18:59:48;;;;;;;5.80;3.22;;;22.30;67.90;;;;;;5075276;28;20109;-48
2022/01/01 19:02:15;;;;;;;5.35;2.80;;;22.40;67.50;;;;;;5037692;28;20057;-49
2022/01/01 19:04:57;;;;;;;5.50;2.55;;;22.40;67.70;;;;;;5071320;28;20044;-48
2022/01/01 19:07:24;;;;;;;6.18;3.10;;;22.50;67.40;;;;;;5071496;28;20056;-48
2022/01/01 19:09:51;;;;;;;4.15;2.00;;;22.50;67.60;;;;;;5072189;28;20053;-51
2022/01/01 19:12:24;;;;;;;6.35;2.45;;;22.50;67.50;;;;;;5054734;28;20076;-52
2022/01/01 19:15:01;;;;;;;6.35;3.05;;;22.60;67.40;;;;;;5071796;28;20064;-49
2022/01/01 19:17:28;;;;;;;4.65;2.83;;;22.60;67.20;;;;;;5072275;28;20075;-50
2022/01/01 19:19:55;;;;;;;3.92;2.25;;;22.60;67.40;;;;;;5070258;28;20087;-51
2022/01/01 19:22:23;;;;;;;5.20;2.58;;;22.60;67.40;;;;;;5072197;28;20087;-48
2022/01/01 19:24:50;;;;;;;8.20;3.17;;;22.70;67.40;;;;;;5071239;28;20144;-51
2022/01/01 19:27:24;;;;;;;6.05;2.63;;;22.70;67.40;;;;;;5071537;28;20049;-50
2022/01/01 19:29:52;;;;;;;4.55;2.13;;;22.70;67.20;;;;;;5072416;28;20236;-51
2022/01/01 19:32:28;;;;;;;6.90;3.30;;;22.70;67.40;;;;;;5054371;28;20091;-53
2022/01/01 19:34:55;;;;;;;5.68;2.28;;;22.80;67.10;;;;;;5053682;28;20083;-49
2022/01/01 19:37:22;;;;;;;5.00;2.70;;;22.80;67.30;;;;;;5071805;28;20076;-50
2022/01/01 19:39:50;;;;;;;4.57;2.58;;;22.80;67.30;;;;;;5071023;28;20897;-48
2022/01/01 19:42:38;;;;;;;5.63;2.58;;;22.80;67.30;;;;;;5069429;28;20123;-48
2022/01/01 19:45:05;;;;;;;4.35;2.60;;;22.80;67.00;;;;;;5071495;28;20456;-49
2022/01/01 19:48:04;;;;;;;4.28;2.38;;;22.80;67.40;;;;;;5071021;28;20064;-50
2022/01/01 19:50:33;;;;;;;6.32;2.67;;;22.80;67.00;;;;;;5056492;28;20528;-49
2022/01/01 19:53:01;;;;;;;5.38;2.78;;;22.80;67.30;;;;;;5067886;28;20520;-48
2022/01/01 19:55:30;;;;;;;7.35;2.75;;;22.80;67.30;;;;;;5054444;28;20463;-51
2022/01/01 19:57:57;;;;;;;5.18;3.00;;;22.80;67.20;;;;;;5071411;28;20084;-48
2022/01/01 20:00:27;;;;;;;5.95;2.58;;;22.80;67.20;;;;;;5069606;28;20481;-51
2022/01/01 20:02:55;;;;;;;4.97;2.47;;;22.80;67.20;;;;;;5069600;28;20135;-49
2022/01/01 20:05:24;;;;;;;4.97;2.63;;;22.80;67.20;;;;;;5071253;28;20080;-48
2022/01/01 20:07:51;;;;;;;4.30;2.10;;;22.80;67.10;;;;;;5069930;28;20437;-49
2022/01/01 20:10:21;;;;;;;4.57;2.95;;;22.90;67.20;;;;;;5071297;28;20281;-49
2022/01/01 20:12:49;;;;;;;5.38;2.45;;;22.90;67.10;;;;;;5052948;28;20079;-52
2022/01/01 20:15:18;;;;;;;6.25;2.80;;;22.90;67.00;;;;;;5053236;28;20086;-47
2022/01/01 20:17:48;;;;;;;5.05;2.13;;;22.90;67.00;;;;;;5054310;28;20102;-48
2022/01/01 20:20:15;;;;;;;5.55;3.10;;;22.90;67.00;;;;;;5070131;28;20105;-48
2022/01/01 20:22:42;;;;;;;5.97;2.40;;;22.90;66.90;;;;;;5070472;28;20049;-48
2022/01/01 20:25:09;;;;;;;5.47;2.80;;;22.90;66.90;;;;;;5070787;28;20434;-49
2022/01/01 20:27:36;;;;;;;5.22;2.55;;;22.90;67.50;;;;;;5070169;28;20437;-49
2022/01/01 20:30:04;;;;;;;6.15;2.60;;;22.90;66.90;;;;;;5070855;28;20086;-49
2022/01/01 20:32:31;;;;;;;6.00;2.72;;;23.00;66.90;;;;;;5068974;28;20052;-49
